Time;durP1;ratioP1;P1;durP2;ratioP2;P2;SDS_P1;SDS_P2;PMS_P1;PMS_P2;Temp;Humidity;BMP_temperature;BMP_pressure;BME280_temperature;BME280_humidity;BME280_pressure;Samples;Min_cycle;Max_cycle;Signal;HPM_P1;HPM_P2
2022/10/19 06:58:16;;;;;;;14.10;6.60;;;;;;;10.68;100.00;99907.16;5128163;27;20156;-77
2022/10/19 07:00:42;;;;;;;11.07;6.60;;;;;;;10.71;100.00;99898.66;5092530;28;20491;-77
2022/10/19 07:03:09;;;;;;;10.27;6.28;;;;;;;10.89;100.00;99903.97;5102694;28;20309;-78
2022/10/19 07:05:36;;;;;;;15.35;8.25;;;;;;;11.04;100.00;99901.41;5106250;28;20058;-78
2022/10/19 07:08:02;;;;;;;14.15;8.48;;;;;;;11.08;100.00;99883.72;5095487;28;20124;-77
2022/10/19 07:10:29;;;;;;;15.43;8.98;;;;;;;11.08;100.00;99875.53;5106003;28;20048;-78
2022/10/19 07:12:56;;;;;;;11.85;7.68;;;;;;;11.33;100.00;99906.31;5104588;28;20482;-78
2022/10/19 07:15:24;;;;;;;11.20;7.18;;;;;;;11.41;100.00;99897.28;5099659;28;20127;-78
2022/10/19 07:17:52;;;;;;;18.50;7.40;;;;;;;11.55;100.00;99904.75;5106722;28;20048;-78
2022/10/19 07:20:19;;;;;;;10.82;7.57;;;;;;;11.48;100.00;99882.81;5106755;28;20050;-78
2022/10/19 07:22:45;;;;;;;12.40;8.80;;;;;;;11.73;100.00;99907.28;5096106;28;20534;-78
2022/10/19 07:25:13;;;;;;;14.02;7.97;;;;;;;11.62;100.00;99873.09;5105492;28;20054;-78
2022/10/19 07:27:39;;;;;;;10.60;6.70;;;;;;;11.77;100.00;99891.44;5105411;28;20044;-78
2022/10/19 07:30:07;;;;;;;10.90;7.35;;;;;;;11.83;100.00;99882.53;5104942;28;20067;-78
2022/10/19 07:32:35;;;;;;;10.13;7.68;;;;;;;11.96;100.00;99891.06;5105362;28;20054;-78
2022/10/19 07:35:01;;;;;;;10.93;7.70;;;;;;;12.17;100.00;99911.41;5106736;28;20047;-78
2022/10/19 07:37:28;;;;;;;10.45;7.90;;;;;;;12.21;100.00;99912.78;5110998;27;20051;-78
2022/10/19 07:39:54;;;;;;;9.65;6.57;;;;;;;12.31;100.00;99909.81;5097890;28;20131;-78
2022/10/19 07:42:21;;;;;;;10.65;6.63;;;;;;;12.32;100.00;99897.88;5104343;28;20055;-78
2022/10/19 07:44:47;;;;;;;9.23;6.32;;;;;;;12.38;100.00;99887.09;5097867;28;20052;-78
2022/10/19 07:47:14;;;;;;;9.05;6.97;;;;;;;12.62;100.00;99917.16;5104889;28;20050;-79
2022/10/19 07:49:42;;;;;;;10.35;6.70;;;;;;;12.62;100.00;99898.91;5105022;28;20047;-78
2022/10/19 07:52:08;;;;;;;10.57;7.13;;;;;;;12.64;100.00;99899.56;5099340;28;20056;-79
2022/10/19 07:54:35;;;;;;;10.15;6.05;;;;;;;12.80;100.00;99916.88;5105981;28;20066;-78
2022/10/19 07:57:01;;;;;;;10.63;5.70;;;;;;;12.88;100.00;99922.25;5105067;28;20043;-78
2022/10/19 07:59:28;;;;;;;10.02;6.70;;;;;;;12.85;100.00;99901.63;5094783;28;20047;-78
2022/10/19 08:01:55;;;;;;;8.45;6.18;;;;;;;13.01;100.00;99899.84;5097744;28;20046;-78
2022/10/19 08:04:22;;;;;;;11.35;6.88;;;;;;;13.15;100.00;99912.66;5100863;28;20462;-79
2022/10/19 08:06:50;;;;;;;11.13;6.30;;;;;;;13.34;100.00;99916.81;5103757;28;20046;-79
2022/10/19 08:09:17;;;;;;;10.30;6.35;;;;;;;13.30;100.00;99893.59;5085666;28;20046;-79
2022/10/19 08:11:43;;;;;;;9.40;6.30;;;;;;;13.40;100.00;99896.94;5084197;28;20066;-78
2022/10/19 08:14:10;;;;;;;10.35;6.70;;;;;;;13.50;100.00;99920.41;5090341;28;20044;-78
2022/10/19 08:16:39;;;;;;;11.20;7.03;;;;;;;13.52;100.00;99912.88;5092493;28;20517;-78
2022/10/19 08:19:07;;;;;;;10.93;7.35;;;;;;;13.62;100.00;99911.59;5088031;28;20049;-78
2022/10/19 08:21:35;;;;;;;11.52;7.05;;;;;;;13.75;100.00;99905.47;5086798;28;20062;-78
2022/10/19 08:24:03;;;;;;;17.73;8.27;;;;;;;13.88;100.00;99902.09;5088139;28;20052;-78
2022/10/19 08:26:31;;;;;;;13.05;6.45;;;;;;;14.08;100.00;99913.28;5078595;28;20044;-78
2022/10/19 08:29:00;;;;;;;15.98;7.22;;;;;;;14.24;100.00;99912.25;5089231;28;20050;-78
2022/10/19 08:31:27;;;;;;;13.95;6.90;;;;;;;14.31;100.00;99902.22;5086890;28;20041;-78
2022/10/19 08:33:54;;;;;;;13.27;7.00;;;;;;;14.23;100.00;99877.72;5082596;28;20039;-78
2022/10/19 08:36:21;;;;;;;14.20;6.97;;;;;;;14.44;100.00;99898.81;5091618;28;20055;-78
2022/10/19 08:38:48;;;;;;;10.90;5.70;;;;;;;14.47;100.00;99881.19;5084035;28;20449;-78
2022/10/19 08:41:24;;;;;;;11.52;5.57;;;;;;;14.54;100.00;99901.22;5089656;28;20054;-79
2022/10/19 08:44:15;;;;;;;9.23;5.60;;;;;;;14.54;100.00;99897.66;5079458;28;20040;-78
2022/10/19 08:46:51;;;;;;;10.20;6.22;;;;;;;14.49;100.00;99879.91;5090670;28;20486;-78
2022/10/19 08:49:20;;;;;;;10.10;6.53;;;;;;;14.47;100.00;99873.81;5087282;28;20045;-78
2022/10/19 08:51:51;;;;;;;13.40;6.82;;;;;;;14.76;100.00;99906.78;5087660;28;20044;-78
2022/10/19 08:54:18;;;;;;;10.20;6.30;;;;;;;14.86;100.00;99910.88;5090336;28;20131;-78
2022/10/19 08:56:49;;;;;;;11.02;5.60;;;;;;;14.91;100.00;99891.13;5091421;28;20052;-78
2022/10/19 08:59:26;;;;;;;9.10;5.82;;;;;;;14.83;100.00;99889.38;5080369;28;20503;-78
2022/10/19 09:01:56;;;;;;;9.85;5.25;;;;;;;15.05;100.00;99892.09;5086318;28;20058;-78
2022/10/19 09:04:27;;;;;;;8.93;6.40;;;;;;;15.17;100.00;99912.44;5090766;28;20054;-78
2022/10/19 09:07:25;;;;;;;7.10;5.13;;;;;;;15.01;100.00;99888.94;5090577;28;20051;-78
2022/10/19 09:09:57;;;;;;;7.32;4.53;;;;;;;15.11;100.00;99883.09;5087000;28;20039;-78
2022/10/19 09:12:39;;;;;;;12.10;5.57;;;;;;;15.20;100.00;99881.06;5079148;28;20043;-78
2022/10/19 09:15:10;;;;;;;7.30;5.00;;;;;;;15.36;100.00;99904.63;5089665;28;20054;-78
2022/10/19 09:17:37;;;;;;;8.43;5.13;;;;;;;15.32;100.00;99908.78;5091113;28;20044;-78
2022/10/19 09:20:19;;;;;;;6.82;5.38;;;;;;;15.28;100.00;99896.53;5087113;28;20051;-79
2022/10/19 09:22:54;;;;;;;8.10;5.30;;;;;;;15.25;100.00;99880.47;5088905;28;20406;-78
2022/10/19 09:25:23;;;;;;;7.38;5.03;;;;;;;15.32;100.00;99895.09;5089625;28;20376;-78
2022/10/19 09:28:03;;;;;;;9.38;4.25;;;;;;;15.40;100.00;99889.44;5089570;28;20050;-78
2022/10/19 09:30:31;;;;;;;8.18;5.22;;;;;;;15.35;100.00;99875.50;5089980;28;20052;-78
2022/10/19 09:33:00;;;;;;;10.30;4.97;;;;;;;15.44;100.00;99882.53;5086205;28;20055;-78
2022/10/19 09:35:30;;;;;;;6.75;5.50;;;;;;;15.57;100.00;99887.28;5086773;28;20048;-79
2022/10/19 09:37:57;;;;;;;6.32;4.43;;;;;;;15.64;100.00;99882.69;5085958;28;20046;-78
2022/10/19 09:40:25;;;;;;;4.53;3.70;;;;;;;15.67;100.00;99867.72;5088675;28;20092;-79
2022/10/19 09:42:57;;;;;;;5.25;4.18;;;;;;;15.80;100.00;99887.03;5088948;28;20044;-78
2022/10/19 09:45:33;;;;;;;4.28;3.78;;;;;;;15.81;100.00;99883.25;5080961;28;20060;-79
2022/10/19 09:48:02;;;;;;;5.97;4.32;;;;;;;15.86;100.00;99860.72;5089232;28;20132;-79
2022/10/19 09:50:30;;;;;;;7.60;3.72;;;;;;;16.15;100.00;99884.25;5078217;28;20055;-79
2022/10/19 09:52:59;;;;;;;6.97;4.07;;;;;;;16.19;100.00;99884.72;5084249;28;20051;-78
2022/10/19 09:55:36;;;;;;;5.85;3.80;;;;;;;16.24;100.00;99880.31;5085942;28;20048;-78
2022/10/19 09:58:15;;;;;;;8.18;3.67;;;;;;;16.06;100.00;99871.78;5084943;28;20132;-79
2022/10/19 10:00:44;;;;;;;6.30;3.35;;;;;;;16.11;100.00;99885.75;5085765;28;20476;-79
2022/10/19 10:03:23;;;;;;;8.00;3.40;;;;;;;16.14;100.00;99884.47;5088590;28;20048;-79
2022/10/19 10:05:50;;;;;;;6.65;3.50;;;;;;;16.11;100.00;99885.75;5082233;28;20050;-78
2022/10/19 10:08:19;;;;;;;6.57;3.20;;;;;;;16.10;100.00;99878.56;5089003;28;20040;-79
2022/10/19 10:10:52;;;;;;;4.90;3.75;;;;;;;16.03;100.00;99878.53;5086539;28;20131;-79
2022/10/19 10:13:26;;;;;;;7.43;3.58;;;;;;;16.09;100.00;99874.09;5082801;28;20505;-79
2022/10/19 10:15:57;;;;;;;7.50;4.57;;;;;;;16.19;100.00;99879.22;5086526;28;20052;-78
2022/10/19 10:18:25;;;;;;;3.95;3.17;;;;;;;16.50;100.00;99870.47;5086333;28;20048;-78
2022/10/19 10:21:00;;;;;;;7.43;3.78;;;;;;;16.68;98.48;99858.06;5089402;28;20121;-78
2022/10/19 10:23:32;;;;;;;7.53;2.90;;;;;;;17.02;100.00;99848.00;5086394;28;20059;-79
2022/10/19 10:26:00;;;;;;;3.50;2.72;;;;;;;17.22;96.11;99875.47;5083339;28;20056;-79
2022/10/19 10:28:30;;;;;;;5.88;3.50;;;;;;;17.05;96.22;99850.34;5077108;28;20043;-78
2022/10/19 10:31:01;;;;;;;5.00;3.28;;;;;;;17.12;97.02;99864.91;5081418;28;20048;-78
2022/10/19 10:33:30;;;;;;;5.35;3.50;;;;;;;16.98;95.84;99853.91;5086741;28;20062;-78
2022/10/19 10:36:02;;;;;;;5.88;3.13;;;;;;;16.90;99.04;99853.28;5088206;28;20054;-78
2022/10/19 10:38:33;;;;;;;6.40;2.60;;;;;;;17.08;99.59;99852.66;5086703;28;20127;-78
2022/10/19 10:41:03;;;;;;;6.32;2.83;;;;;;;17.21;96.56;99852.66;5086203;28;20044;-79
2022/10/19 10:43:33;;;;;;;5.18;2.70;;;;;;;17.16;96.08;99845.06;5086934;28;20076;-79
2022/10/19 10:46:03;;;;;;;6.00;2.33;;;;;;;16.95;97.59;99837.00;5081183;28;20048;-78
2022/10/19 10:48:33;;;;;;;5.93;3.05;;;;;;;16.98;95.60;99848.44;5088890;28;20501;-79
2022/10/19 10:51:00;;;;;;;3.73;2.80;;;;;;;16.85;96.99;99848.38;5087074;28;20411;-79
2022/10/19 10:53:45;;;;;;;3.58;2.30;;;;;;;16.95;95.47;99843.34;5088532;28;20316;-79
2022/10/19 10:56:22;;;;;;;5.75;3.03;;;;;;;16.79;97.82;99838.25;5081767;28;20051;-79
2022/10/19 10:58:56;;;;;;;4.85;2.70;;;;;;;16.83;98.16;99841.41;5078676;28;20074;-79
2022/10/19 11:01:23;;;;;;;5.50;2.88;;;;;;;16.69;96.48;99830.38;5081127;28;20534;-79
2022/10/19 11:03:55;;;;;;;3.38;2.58;;;;;;;16.60;97.46;99813.25;5086723;28;20036;-79
2022/10/19 11:06:25;;;;;;;4.75;2.58;;;;;;;16.78;97.82;99831.88;5081393;28;20051;-79
2022/10/19 11:09:00;;;;;;;2.72;2.10;;;;;;;16.88;98.08;99814.22;5077930;28;20048;-79
2022/10/19 11:11:34;;;;;;;6.18;2.53;;;;;;;16.73;95.67;99815.19;5083328;28;20059;-78
2022/10/19 11:14:28;;;;;;;3.03;2.33;;;;;;;16.59;97.03;99802.50;5079617;28;20384;-79
2022/10/19 11:16:58;;;;;;;4.93;2.13;;;;;;;16.62;97.98;99785.63;5074018;28;20074;-78
2022/10/19 11:19:26;;;;;;;;;;;;;;;16.94;97.33;99814.19;5088211;28;20476;-79
2022/10/19 11:22:02;;;;;;;3.08;1.90;;;;;;;16.90;99.52;99807.44;5087461;28;19920;-79
2022/10/19 11:24:41;;;;;;;3.35;2.45;;;;;;;16.97;96.87;99805.53;5088640;28;20136;-79
2022/10/19 11:27:22;;;;;;;4.63;2.42;;;;;;;17.12;96.54;99797.06;5081002;28;20044;-79
2022/10/19 11:30:03;;;;;;;;;;;;;;;17.36;94.90;99789.25;5090001;28;20132;-79
2022/10/19 11:32:42;;;;;;;4.43;1.80;;;;;;;17.39;92.88;99776.94;5075614;28;19931;-79
2022/10/19 11:35:29;;;;;;;8.07;2.20;;;;;;;17.54;94.13;99783.06;5084341;28;20055;-79
2022/10/19 11:38:05;;;;;;;2.97;2.17;;;;;;;17.68;90.86;99773.69;5085707;28;20051;-79
2022/10/19 11:40:37;;;;;;;6.18;1.80;;;;;;;17.92;88.19;99789.75;5082147;28;20068;-79
2022/10/19 11:43:10;;;;;;;5.80;2.33;;;;;;;18.11;89.56;99764.03;5088474;28;20673;-79
2022/10/19 11:45:50;;;;;;;2.00;1.80;;;;;;;18.33;87.67;99759.03;5092031;28;20135;-79
2022/10/19 11:48:41;;;;;;;5.10;2.05;;;;;;;18.50;84.27;99733.72;5092066;28;20052;-79
2022/10/19 11:51:16;;;;;;;3.03;2.00;;;;;;;18.48;84.07;99738.63;5088450;28;20135;-79
2022/10/19 11:53:57;;;;;;;2.00;1.70;;;;;;;18.70;86.19;99733.59;5092091;28;20072;-79
2022/10/19 11:56:30;;;;;;;2.50;2.05;;;;;;;18.69;83.26;99729.97;5089501;28;20403;-79
2022/10/19 11:59:06;;;;;;;3.80;1.60;;;;;;;18.67;82.92;99715.59;5083465;28;20132;-79
2022/10/19 12:01:50;;;;;;;4.80;1.75;;;;;;;18.77;84.42;99723.34;5084989;28;20452;-79
2022/10/19 12:04:29;;;;;;;3.03;1.40;;;;;;;18.97;85.24;99716.84;5078805;28;20051;-79
2022/10/19 12:07:04;;;;;;;3.20;1.60;;;;;;;19.14;81.14;99717.13;5088815;28;20044;-79
2022/10/19 12:09:42;;;;;;;1.52;1.40;;;;;;;19.19;80.52;99709.81;5084219;28;20154;-79
2022/10/19 12:12:23;;;;;;;2.70;1.80;;;;;;;19.20;82.22;99708.78;5082807;28;20399;-79
2022/10/19 12:14:54;;;;;;;2.63;1.50;;;;;;;18.93;80.83;99699.94;5084319;28;20050;-78
2022/10/19 12:17:27;;;;;;;1.77;1.42;;;;;;;18.95;83.26;99696.94;5083859;28;20127;-79
2022/10/19 12:19:59;;;;;;;4.00;1.45;;;;;;;18.79;78.66;99681.81;5084319;28;20131;-79
2022/10/19 12:22:29;;;;;;;3.90;1.50;;;;;;;18.75;80.62;99671.25;5087671;28;20401;-79
2022/10/19 12:24:59;;;;;;;1.55;1.45;;;;;;;18.72;78.68;99679.13;5086403;28;20127;-79
2022/10/19 12:27:31;;;;;;;1.83;1.20;;;;;;;18.64;80.41;99677.50;5089260;28;20391;-79
2022/10/19 12:30:03;;;;;;;1.90;1.17;;;;;;;18.64;81.11;99701.41;5083551;28;20578;-79
2022/10/19 12:32:39;;;;;;;6.68;1.60;;;;;;;18.66;82.16;99689.13;5089486;28;20081;-79
2022/10/19 12:35:16;;;;;;;2.42;1.10;;;;;;;18.68;81.65;99678.75;5091638;28;20048;-79
2022/10/19 12:37:47;;;;;;;2.70;1.23;;;;;;;18.85;83.03;99686.44;5089761;28;20049;-79
2022/10/19 12:40:23;;;;;;;1.88;1.08;;;;;;;18.78;85.94;99675.47;5091299;28;20483;-79
2022/10/19 12:43:00;;;;;;;7.47;1.30;;;;;;;18.82;83.63;99681.34;5082055;28;20050;-79
2022/10/19 12:45:31;;;;;;;1.80;1.23;;;;;;;18.92;84.08;99685.31;5083682;28;20048;-79
2022/10/19 12:48:20;;;;;;;3.20;1.63;;;;;;;18.87;79.82;99676.88;5087355;28;20050;-79
2022/10/19 12:50:59;;;;;;;3.53;1.40;;;;;;;18.80;83.27;99681.56;5075284;28;20040;-79
2022/10/19 12:53:29;;;;;;;5.60;1.48;;;;;;;18.73;84.07;99653.28;5088906;28;20059;-80
2022/10/19 12:56:01;;;;;;;3.13;1.55;;;;;;;18.75;80.43;99659.38;5088244;28;20172;-79
2022/10/19 12:58:36;;;;;;;2.70;1.30;;;;;;;18.88;82.78;99669.47;5089824;28;20147;-79
2022/10/19 13:01:05;;;;;;;3.45;1.05;;;;;;;18.87;79.88;99663.09;5088764;28;20048;-79
2022/10/19 13:03:35;;;;;;;1.67;1.20;;;;;;;18.92;82.19;99665.19;5084407;28;20479;-79
2022/10/19 13:06:02;;;;;;;;;;;;;;;18.96;80.45;99652.63;5090234;28;20048;-79
2022/10/19 13:08:34;;;;;;;4.43;1.38;;;;;;;18.86;78.87;99649.56;5085447;28;19928;-79
2022/10/19 13:11:07;;;;;;;2.53;1.85;;;;;;;18.72;79.87;99624.03;5083710;28;20047;-79
2022/10/19 13:13:55;;;;;;;3.83;1.45;;;;;;;18.80;80.45;99643.00;5081652;28;20101;-79
2022/10/19 13:17:01;;;;;;;2.47;1.30;;;;;;;18.89;79.83;99651.88;5082927;28;20070;-79
2022/10/19 13:19:29;;;;;;;8.57;1.27;;;;;;;18.91;82.02;99642.31;5089708;28;20040;-79
2022/10/19 13:22:28;;;;;;;1.17;1.10;;;;;;;18.79;81.64;99619.31;5082960;28;20040;-79
2022/10/19 13:25:25;;;;;;;10.13;1.17;;;;;;;18.96;81.17;99643.53;5081841;28;20483;-79
2022/10/19 13:27:53;;;;;;;7.10;2.20;;;;;;;18.86;83.26;99633.03;5087063;28;20080;-79
2022/10/19 13:30:57;;;;;;;5.78;1.27;;;;;;;18.89;84.57;99635.34;5090301;28;20055;-80
2022/10/19 13:33:45;;;;;;;4.10;1.40;;;;;;;18.90;82.63;99632.34;5079424;28;20044;-79
2022/10/19 13:36:13;;;;;;;2.13;1.20;;;;;;;19.03;81.80;99625.88;5090672;28;20115;-79
2022/10/19 13:38:41;;;;;;;1.95;1.30;;;;;;;18.95;81.88;99604.13;5082268;28;20044;-80
2022/10/19 13:41:15;;;;;;;2.70;1.35;;;;;;;19.01;81.32;99611.47;5084423;28;20130;-79
2022/10/19 13:43:52;;;;;;;3.53;1.33;;;;;;;19.01;80.80;99605.94;5091317;28;20094;-80
2022/10/19 13:46:25;;;;;;;3.80;1.75;;;;;;;18.95;80.74;99620.63;5089578;28;20041;-79
2022/10/19 13:49:08;;;;;;;1.45;1.30;;;;;;;18.88;82.71;99619.91;5088538;28;20039;-79
2022/10/19 13:51:49;;;;;;;1.60;1.20;;;;;;;18.95;83.93;99614.31;5083518;28;20127;-79
2022/10/19 13:54:28;;;;;;;5.82;1.63;;;;;;;18.99;84.31;99616.38;5073226;28;20049;-79
2022/10/19 13:57:16;;;;;;;2.03;1.70;;;;;;;19.08;83.63;99614.16;5083045;28;20051;-80
2022/10/19 13:59:58;;;;;;;2.05;1.60;;;;;;;19.12;84.78;99609.00;5081294;28;20044;-79
2022/10/19 14:02:55;;;;;;;2.50;1.75;;;;;;;19.22;83.52;99607.41;5081624;28;20052;-79
2022/10/19 14:05:36;;;;;;;1.73;1.60;;;;;;;19.07;82.28;99573.88;5087421;28;20052;-79
2022/10/19 14:08:30;;;;;;;3.78;1.85;;;;;;;19.16;83.33;99597.28;5087098;28;20052;-79
2022/10/19 14:11:01;;;;;;;3.75;1.55;;;;;;;19.15;83.64;99592.88;5076053;28;20401;-79
2022/10/19 14:13:27;;;;;;;3.58;1.88;;;;;;;18.98;83.52;99584.38;5072759;28;20138;-79
2022/10/19 14:15:56;;;;;;;3.20;1.83;;;;;;;18.98;83.86;99575.28;5089789;28;20048;-80
2022/10/19 14:18:26;;;;;;;5.07;1.88;;;;;;;19.01;85.50;99585.84;5084085;28;20055;-79
2022/10/19 14:20:57;;;;;;;2.00;1.75;;;;;;;19.04;82.56;99561.41;5081541;28;20501;-79
2022/10/19 14:23:27;;;;;;;4.50;1.40;;;;;;;19.20;80.15;99559.13;5082238;28;20394;-79
2022/10/19 14:25:57;;;;;;;2.22;1.60;;;;;;;19.28;78.35;99558.78;5083732;28;20134;-79
2022/10/19 14:28:25;;;;;;;4.05;1.38;;;;;;;19.48;79.21;99558.53;5084984;28;20075;-79
2022/10/19 14:30:56;;;;;;;2.80;1.70;;;;;;;19.51;77.32;99546.16;5088569;28;20048;-79
2022/10/19 14:33:24;;;;;;;2.05;1.25;;;;;;;19.91;78.39;99570.44;5080017;28;20040;-79
2022/10/19 14:35:52;;;;;;;4.18;1.38;;;;;;;19.86;77.14;99549.06;5083672;28;20464;-79
2022/10/19 14:38:21;;;;;;;5.03;1.60;;;;;;;19.54;76.63;99565.00;5082274;28;20043;-79
2022/10/19 14:40:49;;;;;;;1.40;1.30;;;;;;;19.26;79.25;99539.72;5089105;28;20122;-79
2022/10/19 14:43:21;;;;;;;2.38;1.40;;;;;;;18.92;80.91;99549.47;5082649;28;20139;-79
2022/10/19 14:46:13;;;;;;;2.47;1.42;;;;;;;18.82;80.65;99533.47;5083417;28;20398;-78
2022/10/19 14:48:41;;;;;;;2.63;1.60;;;;;;;18.89;81.07;99564.56;5088735;28;20040;-79
2022/10/19 14:51:18;;;;;;;5.00;1.65;;;;;;;18.79;81.47;99555.09;5086661;28;20502;-79
2022/10/19 14:53:49;;;;;;;1.65;1.35;;;;;;;18.73;82.40;99545.88;5084682;28;20386;-80
2022/10/19 14:56:21;;;;;;;6.55;1.55;;;;;;;18.67;82.40;99552.28;5074531;28;20044;-79
2022/10/19 14:58:52;;;;;;;2.53;1.50;;;;;;;18.56;81.80;99524.44;5091149;28;20410;-79
2022/10/19 15:01:20;;;;;;;7.55;1.90;;;;;;;18.56;82.46;99535.47;5080136;28;20056;-80
2022/10/19 15:03:48;;;;;;;4.60;1.98;;;;;;;18.46;83.29;99529.63;5081153;28;20048;-79
2022/10/19 15:06:19;;;;;;;2.05;1.40;;;;;;;18.58;83.52;99543.50;5083888;28;20052;-79
2022/10/19 15:08:49;;;;;;;8.27;2.28;;;;;;;18.57;83.79;99536.28;5076449;28;20079;-79
2022/10/19 15:11:27;;;;;;;5.55;1.60;;;;;;;18.46;84.96;99542.56;5078411;28;20047;-79
2022/10/19 15:14:00;;;;;;;5.65;1.20;;;;;;;18.18;86.58;99538.38;5079514;28;20047;-82
2022/10/19 15:16:30;;;;;;;4.82;1.48;;;;;;;18.05;89.22;99539.34;5078152;28;20054;-81
2022/10/19 15:18:57;;;;;;;;;;;;;;;18.03;88.46;99544.22;5084192;28;20490;-81
2022/10/19 15:21:23;;;;;;;4.72;1.85;;;;;;;17.95;90.15;99539.84;5091210;28;19955;-79
2022/10/19 15:23:51;;;;;;;4.35;1.70;;;;;;;17.92;91.89;99531.19;5084972;28;20044;-80
2022/10/19 15:26:21;;;;;;;5.82;2.25;;;;;;;17.87;92.41;99537.34;5089464;28;20128;-81
2022/10/19 15:28:49;;;;;;;5.82;2.97;;;;;;;17.70;93.97;99506.78;5092428;28;20047;-81
2022/10/19 15:31:19;;;;;;;2.92;1.90;;;;;;;17.69;95.45;99518.88;5088523;28;20627;-81
2022/10/19 15:33:48;;;;;;;;;;;;;;;17.68;95.47;99530.91;5089207;28;20130;-81
2022/10/19 15:36:17;;;;;;;1.80;1.45;;;;;;;17.54;96.39;99535.66;5085874;28;19924;-81
2022/10/19 15:38:45;;;;;;;7.45;1.67;;;;;;;17.48;97.50;99525.56;5092012;28;20109;-81
2022/10/19 15:41:17;;;;;;;3.55;1.70;;;;;;;17.36;98.86;99508.06;5092136;28;20052;-81
2022/10/19 15:43:46;;;;;;;3.15;2.00;;;;;;;17.38;98.51;99520.53;5083926;28;20043;-81
2022/10/19 15:46:32;;;;;;;1.50;1.15;;;;;;;17.25;99.47;99529.72;5090996;28;20123;-81
2022/10/19 15:49:03;;;;;;;5.00;2.17;;;;;;;17.16;100.00;99531.00;5092792;28;20127;-81
2022/10/19 15:51:44;;;;;;;4.97;1.55;;;;;;;17.10;100.00;99529.13;5072735;28;20052;-81
2022/10/19 15:54:14;;;;;;;2.35;1.50;;;;;;;16.94;100.00;99505.78;5088110;28;20127;-81
2022/10/19 15:56:41;;;;;;;1.98;1.70;;;;;;;16.86;100.00;99520.56;5089146;28;20570;-81
2022/10/19 15:59:13;;;;;;;5.38;1.80;;;;;;;16.62;100.00;99508.41;5082869;28;20554;-81
2022/10/19 16:01:41;;;;;;;6.28;2.05;;;;;;;16.48;100.00;99509.50;5086545;28;20052;-81
2022/10/19 16:04:08;;;;;;;2.17;1.73;;;;;;;16.49;100.00;99516.69;5085855;28;20067;-81
2022/10/19 16:06:38;;;;;;;3.97;1.85;;;;;;;16.42;100.00;99522.16;5079689;28;20071;-81
2022/10/19 16:09:05;;;;;;;4.10;1.90;;;;;;;16.35;100.00;99530.41;5088393;28;20056;-81
2022/10/19 16:11:33;;;;;;;3.75;1.70;;;;;;;16.27;100.00;99526.00;5086033;28;20080;-81
2022/10/19 16:14:00;;;;;;;2.03;1.33;;;;;;;16.13;100.00;99501.56;5084517;28;20071;-81
2022/10/19 16:16:28;;;;;;;7.80;1.67;;;;;;;16.12;100.00;99494.38;5081882;28;20054;-81
2022/10/19 16:18:57;;;;;;;10.43;1.90;;;;;;;15.97;100.00;99491.84;5083072;28;20052;-81
2022/10/19 16:21:27;;;;;;;5.88;1.83;;;;;;;15.77;100.00;99489.09;5070985;28;20132;-81
2022/10/19 16:23:54;;;;;;;2.88;1.60;;;;;;;15.78;100.00;99508.09;5070198;28;20041;-81
2022/10/19 16:26:21;;;;;;;4.18;1.67;;;;;;;15.51;100.00;99496.25;5071169;28;20049;-81
2022/10/19 16:28:48;;;;;;;3.45;1.58;;;;;;;15.33;100.00;99489.47;5070608;28;20516;-81
2022/10/19 16:31:15;;;;;;;9.10;1.90;;;;;;;15.35;100.00;99500.22;5082283;28;20051;-81
2022/10/19 16:33:42;;;;;;;4.78;1.65;;;;;;;15.31;100.00;99512.63;5081050;28;20123;-82
2022/10/19 16:36:10;;;;;;;7.85;1.70;;;;;;;15.35;100.00;99530.34;5082287;28;20074;-81
2022/10/19 16:38:37;;;;;;;5.50;2.15;;;;;;;15.32;100.00;99511.59;5070518;28;20052;-81
2022/10/19 16:41:06;;;;;;;5.00;2.13;;;;;;;15.09;100.00;99493.63;5070292;28;20051;-81
2022/10/19 16:43:33;;;;;;;6.25;2.60;;;;;;;15.01;100.00;99502.03;5070902;28;20056;-81
2022/10/19 16:46:01;;;;;;;5.05;2.20;;;;;;;14.63;100.00;99486.09;5086797;28;20144;-81
2022/10/19 16:48:28;;;;;;;10.13;3.03;;;;;;;14.51;100.00;99494.84;5074730;28;20040;-81
2022/10/19 16:51:20;;;;;;;6.38;2.65;;;;;;;14.61;100.00;99531.97;5090369;28;20402;-81
2022/10/19 16:53:51;;;;;;;8.18;3.20;;;;;;;14.52;100.00;99514.84;5075582;28;20139;-81
2022/10/19 16:56:18;;;;;;;7.00;3.50;;;;;;;14.66;100.00;99540.41;5070182;28;20052;-81
2022/10/19 16:58:44;;;;;;;11.45;3.03;;;;;;;14.57;100.00;99528.75;5073060;28;20044;-81
2022/10/19 17:01:14;;;;;;;3.13;2.60;;;;;;;14.66;100.00;99537.66;5086887;28;20039;-81
2022/10/19 17:03:41;;;;;;;6.88;3.03;;;;;;;14.49;100.00;99513.34;5069756;28;20415;-81
2022/10/19 17:06:08;;;;;;;9.15;2.22;;;;;;;14.56;100.00;99534.41;5079028;28;20044;-81
2022/10/19 17:08:37;;;;;;;6.20;3.20;;;;;;;14.40;100.00;99500.88;5090035;28;20479;-80
2022/10/19 17:11:11;;;;;;;3.00;2.33;;;;;;;14.40;100.00;99509.09;5072944;28;20051;-81
2022/10/19 17:13:38;;;;;;;4.38;2.88;;;;;;;14.51;100.00;99535.03;5082234;28;20053;-80
2022/10/19 17:16:06;;;;;;;13.93;3.40;;;;;;;14.31;100.00;99496.63;5089580;28;20418;-80
2022/10/19 17:18:33;;;;;;;8.02;3.45;;;;;;;14.52;100.00;99520.31;5088543;28;20048;-80
2022/10/19 17:21:05;;;;;;;12.25;3.80;;;;;;;14.42;100.00;99509.75;5089297;28;20048;-80
2022/10/19 17:23:31;;;;;;;6.93;3.70;;;;;;;14.35;100.00;99508.84;5087257;28;20046;-80
2022/10/19 17:25:59;;;;;;;8.35;4.35;;;;;;;14.28;100.00;99517.00;5088677;28;20052;-80
2022/10/19 17:28:26;;;;;;;8.98;3.60;;;;;;;14.33;100.00;99533.66;5089302;28;20044;-80
